الصفحة الرئيسية
METAR-TAF:

METAR-TAF

مطار :

Koumac, نيو كاليدونيا

دائرة عرض: 20-34S, خط طول: 164-17E, ارتفاع: 23 متر

METAR: مفقودة

زمن: 08:00 (21:00 UTC)

توقعات

تاريخ ووقت الإصدار 4ساعات و 0 دقيقة قبل الساعة 17:00UTC
التوقعات صالحة من15 الساعة 18 UTC إلى 16 الساعة 18 UTC
ريح 2 عقدةمن اتجاهات متغيرة
الرؤية 10 كم أو أكثر
غيوم متفرقة على ارتفاع 3500 قدم
مؤقت
من 15 الساعة 18 UTC إلى 15 الساعة 21 UTC
الرؤية: 4000 متر
غشاء
أصبح
من 15 الساعة 23 UTC إلى 16 الساعة 01 UTC
ريح 12 عقدة من الجنوب/الجنوب الشرقي
أصبح
من 16 الساعة 07 UTC إلى 16 الساعة 10 UTC
ريح 2 عقدةمن اتجاهات متغيرة

TAF: NWWK 151700Z 1518/1618 VRB02KT 9999 SCT035 TEMPO 1518/1521 4000 BR BECMG 1523/1601 16012KT BECMG 1607/1610 VRB02KT

أرصاد الطقس والتوقعات من أكثر من 4000 مطار (تقارير الطقس للمطار METAR والتنبؤ بالطقس بالمطارTAF).

المحطات المتاحة هي النقط الصفراء والحمراء على الخريطة.

حرك المؤشر فوق النقطة لمعرفة اسم المحطة.

ثم انقر لمعرفة أرصاد وتوقعات الطقس.

لتغيير الخارطة: اضغط على الأزرار الخضراء مع رمز الصليب الأسود للتكبير. على الزر الأخضر مع شرطة للتصغير، أو على الأسهم الخضراء للخرائط المجاورة.


METAR-TAF: